Terminal Aerodrome Forecast
Issued by NWS Charleston, WV

Current Version | Previous Version | Graphics & Text | Print | Product List | Glossary On
Versions: 1 2 3 4 5 6 7 8 9 10 11 12 13 14 15 16 17 18 19 20 21 22 23
232
FTUS41 KRLX 281148
TAFEKN
TAF
KEKN 281148Z 2812/2912 VRB03KT 6SM SHRA BR BKN035
     FM281400 18006KT P6SM BKN028
     FM281700 25007KT P6SM VCSH OVC016
     FM282000 26005KT 4SM -SHRA VCTS BKN030CB
     FM290000 00000KT 5SM BR VCSH OVC023
     FM290600 00000KT 2SM BR OVC011=

USA.gov is the U.S. government's official web portal to all federal, state and local government web resources and services.